ENT1343 EPWA-DTNH
Flight info
| Callsign | ENT1343 |
|---|---|
| Flight time | 3h 3m |
| Altitude | 36000 |
| Route | EVINA DCT NAVUR N744 TUSIN DCT MIKOV DCT INSAX DCT PETOV DCT XAMIT/N0451F370 DCT PININ DCT TUNEX UM738 CBN G727 ATLEL |
| Aircraft | B38M/M-SDFGHIJ4J7RWXY/EB1 |
Departure
| Time | 2026-05-07 10:33 |
|---|---|
| Airport | Warsaw Chopin Airport (EPWA) |
Arrival
| Time | 2026-05-07 13:37 |
|---|---|
| Airport | Enfidha - Hammamet International Airport (DTNH) |
| Time | Latitude | Longitude | Altitude | Speed | Heading |
|---|---|---|---|---|---|
| 2026-05-07 10:18 | 52.17341 | 20.96549 | 365 ft | 0 kts | 208° |
| 2026-05-07 10:26 | 52.17336 | 20.96544 | 365 ft | 1 kts | 210° |
| 2026-05-07 10:27 | 52.17320 | 20.96521 | 365 ft | 4 kts | 227° |
| 2026-05-07 10:27 | 52.17288 | 20.96499 | 365 ft | 6 kts | 178° |
| 2026-05-07 10:27 | 52.17235 | 20.96534 | 365 ft | 9 kts | 152° |
| 2026-05-07 10:27 | 52.17163 | 20.96597 | 365 ft | 13 kts | 152° |
| 2026-05-07 10:28 | 52.17070 | 20.96677 | 365 ft | 16 kts | 152° |
| 2026-05-07 10:28 | 52.16959 | 20.96774 | 365 ft | 19 kts | 152° |
| 2026-05-07 10:28 | 52.16830 | 20.96888 | 365 ft | 21 kts | 151° |
| 2026-05-07 10:28 | 52.16700 | 20.97002 | 365 ft | 21 kts | 152° |
| 2026-05-07 10:29 | 52.16571 | 20.97113 | 365 ft | 20 kts | 151° |
| 2026-05-07 10:29 | 52.16445 | 20.97222 | 365 ft | 20 kts | 152° |
| 2026-05-07 10:29 | 52.16319 | 20.97330 | 365 ft | 19 kts | 151° |
| 2026-05-07 10:30 | 52.16079 | 20.97541 | 365 ft | 19 kts | 153° |
| 2026-05-07 10:30 | 52.15960 | 20.97647 | 365 ft | 19 kts | 152° |
| 2026-05-07 10:30 | 52.15835 | 20.97755 | 365 ft | 20 kts | 152° |
| 2026-05-07 10:30 | 52.15708 | 20.97868 | 365 ft | 20 kts | 152° |
| 2026-05-07 10:31 | 52.15632 | 20.97993 | 365 ft | 13 kts | 78° |
| 2026-05-07 10:31 | 52.15704 | 20.98076 | 365 ft | 14 kts | 22° |
| 2026-05-07 10:31 | 52.15802 | 20.98149 | 365 ft | 17 kts | 25° |
| 2026-05-07 10:31 | 52.15919 | 20.98236 | 365 ft | 19 kts | 24° |
| 2026-05-07 10:32 | 52.16040 | 20.98324 | 365 ft | 17 kts | 24° |
| 2026-05-07 10:32 | 52.16124 | 20.98317 | 365 ft | 11 kts | 297° |
| 2026-05-07 10:32 | 52.16185 | 20.98100 | 365 ft | 43 kts | 295° |
| 2026-05-07 10:32 | 52.16407 | 20.97304 | 365 ft | 107 kts | 294° |
| 2026-05-07 10:33 | 52.16794 | 20.95928 | 370 ft | 158 kts | 295° |
| 2026-05-07 10:33 | 52.17255 | 20.94226 | 899 ft | 165 kts | 293° |
| 2026-05-07 10:33 | 52.17701 | 20.92509 | 1602 ft | 170 kts | 295° |
| 2026-05-07 10:33 | 52.18234 | 20.90711 | 2106 ft | 183 kts | 294° |
| 2026-05-07 10:34 | 52.18397 | 20.88538 | 2265 ft | 209 kts | 259° |
| 2026-05-07 10:34 | 52.17925 | 20.86214 | 2611 ft | 226 kts | 251° |
| 2026-05-07 10:34 | 52.17414 | 20.83725 | 3123 ft | 232 kts | 256° |
| 2026-05-07 10:34 | 52.17042 | 20.81189 | 3702 ft | 237 kts | 259° |
| 2026-05-07 10:35 | 52.16700 | 20.78484 | 4227 ft | 248 kts | 259° |
| 2026-05-07 10:35 | 52.16339 | 20.75702 | 4750 ft | 257 kts | 258° |
| 2026-05-07 10:35 | 52.15919 | 20.72856 | 5430 ft | 261 kts | 252° |
| 2026-05-07 10:35 | 52.14976 | 20.70349 | 6020 ft | 268 kts | 221° |
| 2026-05-07 10:36 | 52.13320 | 20.69134 | 6815 ft | 270 kts | 188° |
| 2026-05-07 10:36 | 52.11455 | 20.69545 | 7499 ft | 277 kts | 162° |
| 2026-05-07 10:36 | 52.09669 | 20.70704 | 8115 ft | 279 kts | 167° |
| 2026-05-07 10:36 | 52.07757 | 20.70906 | 8666 ft | 277 kts | 193° |
| 2026-05-07 10:37 | 52.05946 | 20.70088 | 9371 ft | 274 kts | 201° |
| 2026-05-07 10:37 | 52.04121 | 20.69070 | 9966 ft | 277 kts | 201° |
| 2026-05-07 10:37 | 52.02246 | 20.68058 | 10284 ft | 291 kts | 200° |
| 2026-05-07 10:37 | 52.00236 | 20.67019 | 10471 ft | 310 kts | 199° |
| 2026-05-07 10:38 | 51.98115 | 20.65940 | 10569 ft | 329 kts | 199° |
| 2026-05-07 10:38 | 51.95855 | 20.64794 | 10749 ft | 345 kts | 199° |
| 2026-05-07 10:38 | 51.93539 | 20.63618 | 11227 ft | 350 kts | 199° |
| 2026-05-07 10:38 | 51.91197 | 20.62428 | 11809 ft | 352 kts | 199° |
| 2026-05-07 10:39 | 51.88846 | 20.61232 | 12398 ft | 353 kts | 199° |
| 2026-05-07 10:39 | 51.86505 | 20.60041 | 12950 ft | 356 kts | 199° |
| 2026-05-07 10:39 | 51.84151 | 20.58843 | 13481 ft | 358 kts | 199° |
| 2026-05-07 10:39 | 51.81767 | 20.57632 | 14044 ft | 359 kts | 199° |
| 2026-05-07 10:40 | 51.79364 | 20.56411 | 14543 ft | 362 kts | 199° |
| 2026-05-07 10:40 | 51.76937 | 20.55180 | 15074 ft | 363 kts | 199° |
| 2026-05-07 10:40 | 51.74528 | 20.53959 | 15533 ft | 367 kts | 199° |
| 2026-05-07 10:40 | 51.72074 | 20.52717 | 16016 ft | 369 kts | 199° |
| 2026-05-07 10:41 | 51.69597 | 20.51465 | 16494 ft | 371 kts | 199° |
| 2026-05-07 10:41 | 51.67123 | 20.50216 | 16927 ft | 374 kts | 199° |
| 2026-05-07 10:41 | 51.64645 | 20.48966 | 17349 ft | 377 kts | 199° |
| 2026-05-07 10:41 | 51.62159 | 20.47714 | 17786 ft | 378 kts | 199° |
| 2026-05-07 10:42 | 51.59634 | 20.46444 | 18204 ft | 381 kts | 199° |
| 2026-05-07 10:42 | 51.57113 | 20.45177 | 18730 ft | 380 kts | 199° |
| 2026-05-07 10:42 | 51.54586 | 20.43909 | 19116 ft | 383 kts | 199° |
| 2026-05-07 10:42 | 51.52033 | 20.42629 | 19468 ft | 386 kts | 199° |
| 2026-05-07 10:43 | 51.49444 | 20.41332 | 19878 ft | 388 kts | 199° |
| 2026-05-07 10:43 | 51.46878 | 20.40049 | 20300 ft | 389 kts | 199° |
| 2026-05-07 10:43 | 51.44288 | 20.38755 | 20657 ft | 391 kts | 199° |
| 2026-05-07 10:43 | 51.41678 | 20.37380 | 21074 ft | 392 kts | 202° |
| 2026-05-07 10:44 | 51.39172 | 20.35733 | 21439 ft | 392 kts | 208° |
| 2026-05-07 10:44 | 51.36799 | 20.33639 | 21776 ft | 393 kts | 213° |
| 2026-05-07 10:44 | 51.34511 | 20.31153 | 22211 ft | 392 kts | 217° |
| 2026-05-07 10:44 | 51.32348 | 20.28559 | 22554 ft | 394 kts | 218° |
| 2026-05-07 10:45 | 51.30170 | 20.25861 | 22954 ft | 395 kts | 218° |
| 2026-05-07 10:45 | 51.28003 | 20.23172 | 23285 ft | 396 kts | 218° |
| 2026-05-07 10:45 | 51.25812 | 20.20474 | 23597 ft | 398 kts | 218° |
| 2026-05-07 10:45 | 51.23615 | 20.17795 | 23950 ft | 399 kts | 218° |
| 2026-05-07 10:46 | 51.21411 | 20.15128 | 24323 ft | 399 kts | 218° |
| 2026-05-07 10:46 | 51.19198 | 20.12464 | 24578 ft | 402 kts | 217° |
| 2026-05-07 10:46 | 51.16985 | 20.09810 | 24975 ft | 401 kts | 217° |
| 2026-05-07 10:46 | 51.14731 | 20.07113 | 25188 ft | 405 kts | 217° |
| 2026-05-07 10:47 | 51.12491 | 20.04438 | 25572 ft | 404 kts | 217° |
| 2026-05-07 10:47 | 51.10261 | 20.01779 | 25922 ft | 404 kts | 217° |
| 2026-05-07 10:47 | 51.07996 | 19.99082 | 26145 ft | 407 kts | 217° |
| 2026-05-07 10:47 | 51.05740 | 19.96400 | 26497 ft | 406 kts | 217° |
| 2026-05-07 10:48 | 51.03482 | 19.93717 | 26707 ft | 409 kts | 217° |
| 2026-05-07 10:48 | 51.01216 | 19.91030 | 27024 ft | 409 kts | 217° |
| 2026-05-07 10:48 | 50.98917 | 19.88307 | 27249 ft | 411 kts | 217° |
| 2026-05-07 10:48 | 50.96624 | 19.85596 | 27547 ft | 411 kts | 216° |
| 2026-05-07 10:49 | 50.94338 | 19.82902 | 27892 ft | 410 kts | 217° |
| 2026-05-07 10:49 | 50.92027 | 19.80177 | 28240 ft | 409 kts | 216° |
| 2026-05-07 10:49 | 50.89774 | 19.77523 | 28587 ft | 408 kts | 216° |
| 2026-05-07 10:49 | 50.87499 | 19.74843 | 28961 ft | 407 kts | 217° |
| 2026-05-07 10:50 | 50.85233 | 19.72172 | 29517 ft | 401 kts | 216° |
| 2026-05-07 10:50 | 50.83022 | 19.69583 | 30076 ft | 394 kts | 216° |
| 2026-05-07 10:50 | 50.80838 | 19.67030 | 30482 ft | 391 kts | 216° |
| 2026-05-07 10:50 | 50.78628 | 19.64449 | 30811 ft | 390 kts | 216° |
| 2026-05-07 10:51 | 50.76453 | 19.61904 | 31107 ft | 389 kts | 216° |
| 2026-05-07 10:51 | 50.74279 | 19.59363 | 31339 ft | 390 kts | 216° |
| 2026-05-07 10:51 | 50.72096 | 19.56827 | 31490 ft | 392 kts | 216° |
| 2026-05-07 10:51 | 50.69915 | 19.54312 | 31708 ft | 393 kts | 216° |
| 2026-05-07 10:52 | 50.67696 | 19.51739 | 31975 ft | 392 kts | 216° |
| 2026-05-07 10:52 | 50.65511 | 19.49199 | 32262 ft | 391 kts | 216° |
| 2026-05-07 10:52 | 50.63335 | 19.46655 | 32577 ft | 389 kts | 216° |
| 2026-05-07 10:52 | 50.61179 | 19.44134 | 32918 ft | 387 kts | 216° |
| 2026-05-07 10:53 | 50.59026 | 19.41627 | 33246 ft | 384 kts | 216° |
| 2026-05-07 10:53 | 50.56898 | 19.39160 | 33631 ft | 380 kts | 216° |
| 2026-05-07 10:53 | 50.54747 | 19.36680 | 33819 ft | 381 kts | 216° |
| 2026-05-07 10:53 | 50.52635 | 19.34243 | 33993 ft | 382 kts | 216° |
| 2026-05-07 10:54 | 50.50477 | 19.31751 | 34137 ft | 383 kts | 216° |
| 2026-05-07 10:54 | 50.48336 | 19.29281 | 34257 ft | 385 kts | 215° |
| 2026-05-07 10:54 | 50.46166 | 19.26784 | 34405 ft | 387 kts | 215° |
| 2026-05-07 10:54 | 50.43993 | 19.24287 | 34563 ft | 388 kts | 216° |
| 2026-05-07 10:55 | 50.39620 | 19.19268 | 34772 ft | 392 kts | 216° |
| 2026-05-07 10:55 | 50.37419 | 19.16746 | 34927 ft | 392 kts | 216° |
| 2026-05-07 10:55 | 50.35216 | 19.14225 | 35091 ft | 392 kts | 216° |
| 2026-05-07 10:56 | 50.33028 | 19.11727 | 35257 ft | 391 kts | 215° |
| 2026-05-07 10:56 | 50.30837 | 19.09208 | 35501 ft | 388 kts | 216° |
| 2026-05-07 10:56 | 50.28685 | 19.06715 | 35751 ft | 385 kts | 216° |
| 2026-05-07 10:56 | 50.26551 | 19.04265 | 35880 ft | 385 kts | 216° |
| 2026-05-07 10:57 | 50.22192 | 18.99342 | 35917 ft | 392 kts | 216° |
| 2026-05-07 10:57 | 50.17744 | 18.94349 | 35918 ft | 393 kts | 216° |
| 2026-05-07 10:58 | 50.13347 | 18.89381 | 35914 ft | 390 kts | 216° |
| 2026-05-07 10:58 | 50.08989 | 18.84462 | 35914 ft | 390 kts | 216° |
| 2026-05-07 10:59 | 50.04618 | 18.79508 | 35913 ft | 393 kts | 216° |
| 2026-05-07 10:59 | 50.00200 | 18.74539 | 35915 ft | 390 kts | 216° |
| 2026-05-07 11:00 | 49.95799 | 18.69623 | 35910 ft | 390 kts | 216° |
| 2026-05-07 11:00 | 49.91391 | 18.64705 | 35913 ft | 391 kts | 216° |
| 2026-05-07 11:01 | 49.87032 | 18.59790 | 35917 ft | 391 kts | 218° |
| 2026-05-07 11:01 | 49.83015 | 18.54096 | 35924 ft | 392 kts | 226° |
| 2026-05-07 11:02 | 49.79511 | 18.47678 | 35918 ft | 392 kts | 230° |
| 2026-05-07 11:02 | 49.76125 | 18.41087 | 35923 ft | 393 kts | 230° |
| 2026-05-07 11:03 | 49.72703 | 18.34500 | 35925 ft | 394 kts | 229° |
| 2026-05-07 11:03 | 49.69251 | 18.27945 | 35933 ft | 392 kts | 229° |
| 2026-05-07 11:04 | 49.65827 | 18.21487 | 35940 ft | 391 kts | 229° |
| 2026-05-07 11:04 | 49.62367 | 18.14984 | 35944 ft | 391 kts | 229° |
| 2026-05-07 11:05 | 49.58917 | 18.08520 | 35941 ft | 391 kts | 229° |
| 2026-05-07 11:05 | 49.55458 | 18.02055 | 35939 ft | 391 kts | 229° |
| 2026-05-07 11:06 | 49.52005 | 17.95616 | 35934 ft | 392 kts | 229° |
| 2026-05-07 11:06 | 49.48550 | 17.89189 | 35936 ft | 392 kts | 229° |
| 2026-05-07 11:07 | 49.45081 | 17.82753 | 35938 ft | 391 kts | 228° |
| 2026-05-07 11:07 | 49.41604 | 17.76317 | 35945 ft | 391 kts | 228° |
| 2026-05-07 11:08 | 49.38145 | 17.69934 | 35944 ft | 391 kts | 228° |
| 2026-05-07 11:08 | 49.34656 | 17.63508 | 35952 ft | 390 kts | 228° |
| 2026-05-07 11:09 | 49.31187 | 17.57126 | 35947 ft | 391 kts | 229° |
| 2026-05-07 11:09 | 49.27704 | 17.50740 | 35949 ft | 390 kts | 228° |
| 2026-05-07 11:10 | 49.24226 | 17.44387 | 35950 ft | 391 kts | 228° |
| 2026-05-07 11:10 | 49.20738 | 17.38028 | 35948 ft | 391 kts | 228° |
| 2026-05-07 11:11 | 49.17265 | 17.31707 | 35949 ft | 391 kts | 227° |
| 2026-05-07 11:11 | 49.13767 | 17.25355 | 35956 ft | 391 kts | 227° |
| 2026-05-07 11:12 | 49.10271 | 17.19025 | 35951 ft | 392 kts | 227° |
| 2026-05-07 11:12 | 49.06759 | 17.12678 | 35957 ft | 390 kts | 227° |
| 2026-05-07 11:13 | 49.03249 | 17.06353 | 35951 ft | 390 kts | 227° |
| 2026-05-07 11:13 | 48.99763 | 17.00085 | 35947 ft | 391 kts | 227° |
| 2026-05-07 11:14 | 48.96226 | 16.93743 | 35958 ft | 392 kts | 227° |
| 2026-05-07 11:14 | 48.92707 | 16.87446 | 35950 ft | 392 kts | 227° |
| 2026-05-07 11:15 | 48.89184 | 16.81156 | 35950 ft | 392 kts | 227° |
| 2026-05-07 11:15 | 48.85662 | 16.74883 | 35963 ft | 392 kts | 227° |
| 2026-05-07 11:16 | 48.82101 | 16.68614 | 35962 ft | 391 kts | 226° |
| 2026-05-07 11:16 | 48.78019 | 16.63311 | 35957 ft | 389 kts | 210° |
| 2026-05-07 11:17 | 48.72996 | 16.60312 | 35959 ft | 391 kts | 196° |
| 2026-05-07 11:17 | 48.67654 | 16.58590 | 35963 ft | 392 kts | 193° |
| 2026-05-07 11:18 | 48.62328 | 16.56994 | 35965 ft | 391 kts | 194° |
| 2026-05-07 11:18 | 48.57014 | 16.55353 | 35974 ft | 391 kts | 194° |
| 2026-05-07 11:19 | 48.51708 | 16.53695 | 35974 ft | 390 kts | 194° |
| 2026-05-07 11:19 | 48.46360 | 16.52022 | 35964 ft | 393 kts | 194° |
| 2026-05-07 11:20 | 48.41019 | 16.50355 | 35964 ft | 393 kts | 194° |
| 2026-05-07 11:20 | 48.35696 | 16.48698 | 35972 ft | 391 kts | 194° |
| 2026-05-07 11:21 | 48.30355 | 16.47041 | 35967 ft | 392 kts | 194° |
| 2026-05-07 11:21 | 48.25017 | 16.45385 | 35979 ft | 394 kts | 194° |
| 2026-05-07 11:22 | 48.19653 | 16.43727 | 35979 ft | 394 kts | 194° |
| 2026-05-07 11:22 | 48.14309 | 16.42079 | 35980 ft | 393 kts | 194° |
| 2026-05-07 11:23 | 48.08948 | 16.40428 | 35973 ft | 392 kts | 194° |
| 2026-05-07 11:23 | 48.03609 | 16.38788 | 35980 ft | 393 kts | 194° |
| 2026-05-07 11:24 | 47.98257 | 16.37146 | 35979 ft | 395 kts | 194° |
| 2026-05-07 11:24 | 47.92885 | 16.35504 | 35972 ft | 392 kts | 194° |
| 2026-05-07 11:25 | 47.87568 | 16.33888 | 35983 ft | 393 kts | 194° |
| 2026-05-07 11:25 | 47.82205 | 16.32254 | 35972 ft | 396 kts | 193° |
| 2026-05-07 11:26 | 47.76853 | 16.30621 | 35965 ft | 392 kts | 194° |
| 2026-05-07 11:26 | 47.71515 | 16.29007 | 35962 ft | 392 kts | 194° |
| 2026-05-07 11:27 | 47.66203 | 16.27404 | 35969 ft | 393 kts | 194° |
| 2026-05-07 11:27 | 47.60829 | 16.25779 | 35964 ft | 391 kts | 193° |
| 2026-05-07 11:28 | 47.55500 | 16.24167 | 35972 ft | 392 kts | 193° |
| 2026-05-07 11:28 | 47.50153 | 16.22556 | 35967 ft | 393 kts | 194° |
| 2026-05-07 11:29 | 47.44805 | 16.20953 | 35965 ft | 392 kts | 194° |
| 2026-05-07 11:29 | 47.39480 | 16.19362 | 35967 ft | 391 kts | 194° |
| 2026-05-07 11:30 | 47.34141 | 16.17766 | 35967 ft | 391 kts | 194° |
| 2026-05-07 11:30 | 47.28796 | 16.16169 | 35952 ft | 392 kts | 194° |
| 2026-05-07 11:31 | 47.23478 | 16.14584 | 35955 ft | 392 kts | 194° |
| 2026-05-07 11:31 | 47.18150 | 16.13000 | 35948 ft | 391 kts | 194° |
| 2026-05-07 11:32 | 47.10195 | 16.10644 | 35948 ft | 390 kts | 194° |
| 2026-05-07 11:33 | 47.04871 | 16.09072 | 35946 ft | 391 kts | 194° |
| 2026-05-07 11:33 | 46.99506 | 16.07593 | 35948 ft | 392 kts | 191° |
| 2026-05-07 11:34 | 46.94081 | 16.06734 | 35949 ft | 393 kts | 188° |
| 2026-05-07 11:34 | 46.88652 | 16.06060 | 35950 ft | 394 kts | 189° |
| 2026-05-07 11:35 | 46.83162 | 16.05307 | 35954 ft | 395 kts | 189° |
| 2026-05-07 11:35 | 46.77729 | 16.04522 | 35954 ft | 393 kts | 189° |
| 2026-05-07 11:36 | 46.72261 | 16.03715 | 35958 ft | 393 kts | 189° |
| 2026-05-07 11:36 | 46.66808 | 16.02900 | 35966 ft | 394 kts | 190° |
| 2026-05-07 11:37 | 46.61391 | 16.02094 | 35970 ft | 394 kts | 189° |
| 2026-05-07 11:37 | 46.55944 | 16.01294 | 35969 ft | 394 kts | 189° |
| 2026-05-07 11:38 | 46.50467 | 16.00482 | 35978 ft | 395 kts | 189° |
| 2026-05-07 11:38 | 46.45025 | 15.99684 | 35971 ft | 394 kts | 190° |
| 2026-05-07 11:39 | 46.39567 | 15.98880 | 35977 ft | 397 kts | 190° |
| 2026-05-07 11:39 | 46.34089 | 15.98073 | 35984 ft | 396 kts | 190° |
| 2026-05-07 11:40 | 46.28680 | 15.96796 | 35984 ft | 391 kts | 197° |
| 2026-05-07 11:40 | 46.23454 | 15.94699 | 35988 ft | 390 kts | 200° |
| 2026-05-07 11:41 | 46.18239 | 15.92435 | 35995 ft | 392 kts | 200° |
| 2026-05-07 11:41 | 46.13002 | 15.90221 | 35992 ft | 393 kts | 200° |
| 2026-05-07 11:42 | 46.07748 | 15.88043 | 35990 ft | 392 kts | 199° |
| 2026-05-07 11:42 | 46.02539 | 15.85897 | 36000 ft | 391 kts | 199° |
| 2026-05-07 11:43 | 45.97305 | 15.83745 | 35995 ft | 392 kts | 199° |
| 2026-05-07 11:43 | 45.92061 | 15.81596 | 35991 ft | 393 kts | 200° |
| 2026-05-07 11:44 | 45.86810 | 15.79450 | 35996 ft | 393 kts | 199° |
| 2026-05-07 11:44 | 45.81559 | 15.77309 | 35999 ft | 392 kts | 200° |
| 2026-05-07 11:45 | 45.76313 | 15.75173 | 35995 ft | 392 kts | 199° |
| 2026-05-07 11:45 | 45.71060 | 15.73041 | 36001 ft | 392 kts | 199° |
| 2026-05-07 11:46 | 45.65812 | 15.70912 | 35989 ft | 393 kts | 199° |
| 2026-05-07 11:46 | 45.60537 | 15.68775 | 35993 ft | 392 kts | 199° |
| 2026-05-07 11:47 | 45.55310 | 15.66664 | 35989 ft | 392 kts | 199° |
| 2026-05-07 11:47 | 45.50056 | 15.64547 | 35983 ft | 393 kts | 199° |
| 2026-05-07 11:48 | 45.44772 | 15.62422 | 35986 ft | 393 kts | 200° |
| 2026-05-07 11:48 | 45.39514 | 15.60310 | 35989 ft | 393 kts | 199° |
| 2026-05-07 11:49 | 45.34251 | 15.58201 | 35992 ft | 394 kts | 199° |
| 2026-05-07 11:49 | 45.28966 | 15.56087 | 35988 ft | 394 kts | 200° |
| 2026-05-07 11:50 | 45.23718 | 15.53992 | 35988 ft | 394 kts | 199° |
| 2026-05-07 11:50 | 45.18451 | 15.51894 | 35993 ft | 394 kts | 200° |
| 2026-05-07 11:51 | 45.13173 | 15.49794 | 35998 ft | 393 kts | 200° |
| 2026-05-07 11:51 | 45.07895 | 15.47699 | 35997 ft | 394 kts | 200° |
| 2026-05-07 11:52 | 45.02590 | 15.45599 | 35999 ft | 394 kts | 200° |
| 2026-05-07 11:52 | 44.97317 | 15.43514 | 36000 ft | 394 kts | 200° |
| 2026-05-07 11:53 | 44.92037 | 15.41430 | 36003 ft | 396 kts | 200° |
| 2026-05-07 11:53 | 44.86744 | 15.39343 | 36007 ft | 395 kts | 200° |
| 2026-05-07 11:54 | 44.81455 | 15.37262 | 36005 ft | 395 kts | 200° |
| 2026-05-07 11:54 | 44.76168 | 15.35191 | 36004 ft | 396 kts | 200° |
| 2026-05-07 11:55 | 44.70840 | 15.33106 | 36010 ft | 398 kts | 199° |
| 2026-05-07 11:55 | 44.65532 | 15.31032 | 36008 ft | 397 kts | 199° |
| 2026-05-07 11:56 | 44.60191 | 15.28950 | 36018 ft | 396 kts | 199° |
| 2026-05-07 11:56 | 44.54900 | 15.26889 | 36021 ft | 397 kts | 199° |
| 2026-05-07 11:57 | 44.49546 | 15.24805 | 36025 ft | 399 kts | 199° |
| 2026-05-07 11:57 | 44.44190 | 15.22728 | 36020 ft | 399 kts | 199° |
| 2026-05-07 11:58 | 44.38850 | 15.20661 | 36021 ft | 398 kts | 199° |
| 2026-05-07 11:58 | 44.33489 | 15.18590 | 36021 ft | 400 kts | 200° |
| 2026-05-07 11:59 | 44.28148 | 15.16531 | 36026 ft | 400 kts | 199° |
| 2026-05-07 11:59 | 44.22760 | 15.14456 | 36025 ft | 400 kts | 199° |
| 2026-05-07 12:00 | 44.17391 | 15.12394 | 36023 ft | 401 kts | 200° |
| 2026-05-07 12:00 | 44.12008 | 15.10329 | 36024 ft | 401 kts | 200° |
| 2026-05-07 12:01 | 44.06618 | 15.08267 | 36036 ft | 401 kts | 199° |
| 2026-05-07 12:01 | 44.01221 | 15.06202 | 36030 ft | 403 kts | 200° |
| 2026-05-07 12:02 | 43.95797 | 15.04133 | 36025 ft | 403 kts | 200° |
| 2026-05-07 12:02 | 43.90430 | 15.02094 | 36026 ft | 401 kts | 200° |
| 2026-05-07 12:03 | 43.85038 | 15.00046 | 36028 ft | 403 kts | 200° |
| 2026-05-07 12:03 | 43.79626 | 14.97993 | 36024 ft | 403 kts | 200° |
| 2026-05-07 12:04 | 43.74192 | 14.95937 | 36025 ft | 403 kts | 200° |
| 2026-05-07 12:04 | 43.68772 | 14.93890 | 36012 ft | 403 kts | 200° |
| 2026-05-07 12:05 | 43.63360 | 14.91849 | 36016 ft | 404 kts | 200° |
| 2026-05-07 12:05 | 43.57954 | 14.89815 | 36011 ft | 404 kts | 200° |
| 2026-05-07 12:06 | 43.52534 | 14.87779 | 36005 ft | 404 kts | 200° |
| 2026-05-07 12:06 | 43.47090 | 14.85738 | 36002 ft | 404 kts | 200° |
| 2026-05-07 12:07 | 43.41688 | 14.83716 | 36004 ft | 405 kts | 200° |
| 2026-05-07 12:07 | 43.36222 | 14.81673 | 35998 ft | 406 kts | 200° |
| 2026-05-07 12:08 | 43.30853 | 14.79438 | 36005 ft | 403 kts | 206° |
| 2026-05-07 12:08 | 43.28272 | 14.77949 | 36160 ft | 400 kts | 209° |
| 2026-05-07 12:08 | 43.25735 | 14.76278 | 36282 ft | 400 kts | 211° |
| 2026-05-07 12:08 | 43.23279 | 14.74555 | 36437 ft | 399 kts | 212° |
| 2026-05-07 12:09 | 43.20800 | 14.72782 | 36645 ft | 398 kts | 212° |
| 2026-05-07 12:09 | 43.18346 | 14.71031 | 36817 ft | 397 kts | 212° |
| 2026-05-07 12:09 | 43.15887 | 14.69293 | 36950 ft | 398 kts | 212° |
| 2026-05-07 12:10 | 43.10930 | 14.65832 | 36991 ft | 404 kts | 212° |
| 2026-05-07 12:10 | 43.05896 | 14.62360 | 36990 ft | 402 kts | 212° |
| 2026-05-07 12:11 | 43.00943 | 14.58965 | 36989 ft | 399 kts | 212° |
| 2026-05-07 12:11 | 42.95954 | 14.55547 | 36987 ft | 400 kts | 212° |
| 2026-05-07 12:12 | 42.90990 | 14.52152 | 36987 ft | 401 kts | 212° |
| 2026-05-07 12:12 | 42.86030 | 14.48765 | 36991 ft | 402 kts | 212° |
| 2026-05-07 12:13 | 42.81020 | 14.45355 | 36989 ft | 400 kts | 212° |
| 2026-05-07 12:13 | 42.76055 | 14.41981 | 36990 ft | 399 kts | 212° |
| 2026-05-07 12:14 | 42.71086 | 14.38607 | 36990 ft | 399 kts | 212° |
| 2026-05-07 12:14 | 42.66112 | 14.35238 | 36990 ft | 399 kts | 212° |
| 2026-05-07 12:15 | 42.61166 | 14.31892 | 36991 ft | 400 kts | 212° |
| 2026-05-07 12:15 | 42.56227 | 14.28556 | 36998 ft | 399 kts | 212° |
| 2026-05-07 12:16 | 42.51259 | 14.25212 | 36997 ft | 396 kts | 212° |
| 2026-05-07 12:16 | 42.46295 | 14.21872 | 37002 ft | 399 kts | 212° |
| 2026-05-07 12:17 | 42.41333 | 14.18541 | 37004 ft | 397 kts | 213° |
| 2026-05-07 12:17 | 42.36422 | 14.15254 | 37006 ft | 397 kts | 213° |
| 2026-05-07 12:18 | 42.31471 | 14.11933 | 37009 ft | 399 kts | 213° |
| 2026-05-07 12:18 | 42.26510 | 14.08614 | 37010 ft | 397 kts | 213° |
| 2026-05-07 12:19 | 42.21569 | 14.05320 | 37022 ft | 394 kts | 213° |
| 2026-05-07 12:19 | 42.16681 | 14.02065 | 37036 ft | 395 kts | 213° |
| 2026-05-07 12:20 | 42.11708 | 13.98751 | 37042 ft | 398 kts | 213° |
| 2026-05-07 12:20 | 42.06771 | 13.95478 | 37059 ft | 396 kts | 213° |
| 2026-05-07 12:21 | 42.01834 | 13.92211 | 37067 ft | 395 kts | 214° |
| 2026-05-07 12:21 | 41.96877 | 13.88942 | 37070 ft | 395 kts | 213° |
| 2026-05-07 12:22 | 41.91997 | 13.85726 | 37071 ft | 392 kts | 214° |
| 2026-05-07 12:22 | 41.87064 | 13.82463 | 37071 ft | 395 kts | 214° |
| 2026-05-07 12:23 | 41.82113 | 13.79209 | 37071 ft | 397 kts | 214° |
| 2026-05-07 12:23 | 41.77164 | 13.75966 | 37066 ft | 394 kts | 214° |
| 2026-05-07 12:24 | 41.72277 | 13.72754 | 37063 ft | 391 kts | 215° |
| 2026-05-07 12:24 | 41.67356 | 13.69515 | 37057 ft | 393 kts | 214° |
| 2026-05-07 12:25 | 41.62465 | 13.66345 | 37044 ft | 390 kts | 214° |
| 2026-05-07 12:25 | 41.57579 | 13.63158 | 37031 ft | 394 kts | 215° |
| 2026-05-07 12:26 | 41.52639 | 13.59951 | 37014 ft | 393 kts | 214° |
| 2026-05-07 12:26 | 41.47739 | 13.56759 | 37011 ft | 390 kts | 215° |
| 2026-05-07 12:27 | 41.42864 | 13.53626 | 37007 ft | 390 kts | 214° |
| 2026-05-07 12:27 | 41.37980 | 13.50479 | 37007 ft | 390 kts | 215° |
| 2026-05-07 12:28 | 41.33076 | 13.47314 | 37002 ft | 391 kts | 215° |
| 2026-05-07 12:28 | 41.28204 | 13.44160 | 36999 ft | 388 kts | 216° |
| 2026-05-07 12:29 | 41.23343 | 13.40984 | 36997 ft | 392 kts | 216° |
| 2026-05-07 12:29 | 41.18424 | 13.37824 | 36986 ft | 389 kts | 216° |
| 2026-05-07 12:30 | 41.13562 | 13.34734 | 36987 ft | 388 kts | 216° |
| 2026-05-07 12:30 | 41.08669 | 13.31618 | 36985 ft | 390 kts | 215° |
| 2026-05-07 12:31 | 41.03785 | 13.28495 | 36987 ft | 386 kts | 216° |
| 2026-05-07 12:31 | 40.98928 | 13.25381 | 36988 ft | 392 kts | 217° |
| 2026-05-07 12:32 | 40.94047 | 13.22246 | 36981 ft | 384 kts | 217° |
| 2026-05-07 12:32 | 40.89204 | 13.19149 | 36975 ft | 386 kts | 217° |
| 2026-05-07 12:33 | 40.81874 | 13.14470 | 36974 ft | 393 kts | 216° |
| 2026-05-07 12:33 | 40.77052 | 13.11450 | 36989 ft | 377 kts | 216° |
| 2026-05-07 12:34 | 40.72333 | 13.08469 | 36985 ft | 377 kts | 217° |
| 2026-05-07 12:34 | 40.67554 | 13.05423 | 36988 ft | 382 kts | 218° |
| 2026-05-07 12:35 | 40.62757 | 13.02398 | 36991 ft | 382 kts | 217° |
| 2026-05-07 12:35 | 40.57929 | 12.99368 | 36986 ft | 383 kts | 217° |
| 2026-05-07 12:36 | 40.53134 | 12.96322 | 36984 ft | 379 kts | 217° |
| 2026-05-07 12:36 | 40.48373 | 12.93338 | 36981 ft | 379 kts | 218° |
| 2026-05-07 12:37 | 40.43596 | 12.90349 | 36991 ft | 381 kts | 217° |
| 2026-05-07 12:37 | 40.38865 | 12.87411 | 36986 ft | 370 kts | 217° |
| 2026-05-07 12:38 | 40.34189 | 12.84504 | 36981 ft | 373 kts | 218° |
| 2026-05-07 12:38 | 40.29458 | 12.81518 | 36985 ft | 380 kts | 218° |
| 2026-05-07 12:39 | 40.24670 | 12.78516 | 36988 ft | 382 kts | 217° |
| 2026-05-07 12:39 | 40.19937 | 12.75601 | 36983 ft | 371 kts | 219° |
| 2026-05-07 12:40 | 40.15260 | 12.72687 | 36981 ft | 374 kts | 219° |
| 2026-05-07 12:40 | 40.10538 | 12.69741 | 36984 ft | 379 kts | 218° |
| 2026-05-07 12:41 | 40.05795 | 12.66828 | 36980 ft | 374 kts | 218° |
| 2026-05-07 12:41 | 40.01091 | 12.63924 | 36979 ft | 374 kts | 220° |
| 2026-05-07 12:42 | 39.96367 | 12.60970 | 36972 ft | 379 kts | 218° |
| 2026-05-07 12:42 | 39.91608 | 12.58046 | 36969 ft | 374 kts | 218° |
| 2026-05-07 12:43 | 39.86935 | 12.55194 | 36968 ft | 370 kts | 219° |
| 2026-05-07 12:43 | 39.82257 | 12.52303 | 36965 ft | 375 kts | 220° |
| 2026-05-07 12:44 | 39.77526 | 12.49382 | 36965 ft | 375 kts | 218° |
| 2026-05-07 12:44 | 39.72817 | 12.46519 | 36969 ft | 372 kts | 219° |
| 2026-05-07 12:45 | 39.68106 | 12.43652 | 36962 ft | 373 kts | 219° |
| 2026-05-07 12:45 | 39.63441 | 12.40794 | 36959 ft | 370 kts | 218° |
| 2026-05-07 12:46 | 39.58791 | 12.37941 | 36965 ft | 371 kts | 219° |
| 2026-05-07 12:46 | 39.54089 | 12.35052 | 36961 ft | 374 kts | 218° |
| 2026-05-07 12:47 | 39.49397 | 12.32196 | 36961 ft | 370 kts | 218° |
| 2026-05-07 12:47 | 39.44734 | 12.29387 | 36954 ft | 372 kts | 218° |
| 2026-05-07 12:48 | 39.40033 | 12.26535 | 36955 ft | 368 kts | 218° |
| 2026-05-07 12:48 | 39.35412 | 12.23739 | 36950 ft | 365 kts | 219° |
| 2026-05-07 12:49 | 39.30758 | 12.20921 | 36949 ft | 372 kts | 218° |
| 2026-05-07 12:49 | 39.26071 | 12.18078 | 36950 ft | 376 kts | 218° |
| 2026-05-07 12:50 | 39.21345 | 12.15250 | 36951 ft | 368 kts | 218° |
| 2026-05-07 12:50 | 39.16724 | 12.12490 | 36952 ft | 367 kts | 218° |
| 2026-05-07 12:51 | 39.12044 | 12.09668 | 36947 ft | 372 kts | 217° |
| 2026-05-07 12:51 | 39.07366 | 12.06872 | 36943 ft | 366 kts | 218° |
| 2026-05-07 12:52 | 39.02771 | 12.04118 | 36948 ft | 367 kts | 217° |
| 2026-05-07 12:52 | 38.98116 | 12.01318 | 36944 ft | 369 kts | 218° |
| 2026-05-07 12:53 | 38.93481 | 11.98540 | 36943 ft | 367 kts | 217° |
| 2026-05-07 12:53 | 38.88869 | 11.95795 | 36940 ft | 365 kts | 218° |
| 2026-05-07 12:54 | 38.84234 | 11.93029 | 36936 ft | 369 kts | 218° |
| 2026-05-07 12:54 | 38.79530 | 11.90238 | 36937 ft | 369 kts | 217° |
| 2026-05-07 12:55 | 38.74909 | 11.87500 | 36937 ft | 366 kts | 217° |
| 2026-05-07 12:55 | 38.70270 | 11.84732 | 36927 ft | 370 kts | 218° |
| 2026-05-07 12:56 | 38.65613 | 11.81986 | 36931 ft | 366 kts | 216° |
| 2026-05-07 12:56 | 38.61005 | 11.79276 | 36930 ft | 364 kts | 217° |
| 2026-05-07 12:57 | 38.56350 | 11.76543 | 36929 ft | 367 kts | 217° |
| 2026-05-07 12:57 | 38.51744 | 11.73827 | 36935 ft | 367 kts | 217° |
| 2026-05-07 12:58 | 38.47125 | 11.71110 | 36922 ft | 364 kts | 216° |
| 2026-05-07 12:58 | 38.42527 | 11.68418 | 36925 ft | 361 kts | 217° |
| 2026-05-07 12:59 | 38.37960 | 11.65705 | 36933 ft | 365 kts | 217° |
| 2026-05-07 12:59 | 38.33347 | 11.63001 | 36923 ft | 365 kts | 216° |
| 2026-05-07 13:00 | 38.28706 | 11.60247 | 36920 ft | 367 kts | 217° |
| 2026-05-07 13:00 | 38.24096 | 11.57533 | 36926 ft | 364 kts | 217° |
| 2026-05-07 13:01 | 38.19478 | 11.54848 | 36917 ft | 362 kts | 215° |
| 2026-05-07 13:01 | 38.14924 | 11.52244 | 36920 ft | 361 kts | 216° |
| 2026-05-07 13:02 | 38.10318 | 11.49548 | 36910 ft | 365 kts | 216° |
| 2026-05-07 13:02 | 38.05667 | 11.46848 | 36912 ft | 364 kts | 216° |
| 2026-05-07 13:03 | 38.01121 | 11.44215 | 36919 ft | 361 kts | 217° |
| 2026-05-07 13:03 | 37.96511 | 11.41511 | 36913 ft | 367 kts | 216° |
| 2026-05-07 13:04 | 37.91807 | 11.39050 | 36917 ft | 370 kts | 210° |
| 2026-05-07 13:04 | 37.86718 | 11.37354 | 36917 ft | 385 kts | 204° |
| 2026-05-07 13:05 | 37.81502 | 11.35941 | 36917 ft | 381 kts | 205° |
| 2026-05-07 13:05 | 37.76315 | 11.34480 | 36908 ft | 382 kts | 205° |
| 2026-05-07 13:06 | 37.71147 | 11.32970 | 36909 ft | 381 kts | 205° |
| 2026-05-07 13:06 | 37.66003 | 11.31425 | 36912 ft | 381 kts | 205° |
| 2026-05-07 13:07 | 37.60791 | 11.29875 | 36907 ft | 383 kts | 205° |
| 2026-05-07 13:07 | 37.55591 | 11.28339 | 36909 ft | 381 kts | 205° |
| 2026-05-07 13:08 | 37.50457 | 11.26829 | 36912 ft | 378 kts | 206° |
| 2026-05-07 13:08 | 37.45283 | 11.25274 | 36905 ft | 382 kts | 205° |
| 2026-05-07 13:09 | 37.40150 | 11.23738 | 36915 ft | 380 kts | 204° |
| 2026-05-07 13:09 | 37.35007 | 11.22214 | 36911 ft | 382 kts | 205° |
| 2026-05-07 13:10 | 37.29807 | 11.20674 | 36907 ft | 383 kts | 204° |
| 2026-05-07 13:10 | 37.24614 | 11.19171 | 36904 ft | 381 kts | 204° |
| 2026-05-07 13:11 | 37.19398 | 11.17623 | 36158 ft | 388 kts | 204° |
| 2026-05-07 13:11 | 37.16756 | 11.16843 | 35263 ft | 391 kts | 204° |
| 2026-05-07 13:11 | 37.14108 | 11.16070 | 34596 ft | 390 kts | 203° |
| 2026-05-07 13:12 | 37.11507 | 11.15326 | 34116 ft | 385 kts | 203° |
| 2026-05-07 13:12 | 37.08882 | 11.14581 | 33464 ft | 384 kts | 204° |
| 2026-05-07 13:12 | 37.06311 | 11.13837 | 33136 ft | 376 kts | 203° |
| 2026-05-07 13:12 | 37.03796 | 11.13112 | 32802 ft | 369 kts | 204° |
| 2026-05-07 13:13 | 37.01311 | 11.12385 | 32393 ft | 364 kts | 203° |
| 2026-05-07 13:13 | 36.98855 | 11.11668 | 31956 ft | 360 kts | 204° |
| 2026-05-07 13:13 | 36.96407 | 11.10951 | 31453 ft | 357 kts | 204° |
| 2026-05-07 13:13 | 36.94006 | 11.10242 | 30719 ft | 361 kts | 204° |
| 2026-05-07 13:14 | 36.91541 | 11.09509 | 30063 ft | 362 kts | 204° |
| 2026-05-07 13:14 | 36.89093 | 11.08788 | 29510 ft | 360 kts | 202° |
| 2026-05-07 13:14 | 36.86673 | 11.08077 | 28970 ft | 359 kts | 202° |
| 2026-05-07 13:14 | 36.84246 | 11.07336 | 28286 ft | 361 kts | 203° |
| 2026-05-07 13:15 | 36.81833 | 11.06583 | 27768 ft | 360 kts | 203° |
| 2026-05-07 13:15 | 36.79391 | 11.05827 | 27335 ft | 356 kts | 201° |
| 2026-05-07 13:15 | 36.77015 | 11.05099 | 26992 ft | 350 kts | 203° |
| 2026-05-07 13:15 | 36.74653 | 11.04372 | 26418 ft | 351 kts | 202° |
| 2026-05-07 13:16 | 36.72300 | 11.03645 | 25883 ft | 352 kts | 202° |
| 2026-05-07 13:16 | 36.69900 | 11.02911 | 25197 ft | 356 kts | 201° |
| 2026-05-07 13:16 | 36.67508 | 11.02203 | 24920 ft | 348 kts | 201° |
| 2026-05-07 13:16 | 36.65157 | 11.01506 | 24385 ft | 348 kts | 201° |
| 2026-05-07 13:17 | 36.62810 | 11.00791 | 23742 ft | 351 kts | 201° |
| 2026-05-07 13:17 | 36.60431 | 11.00057 | 23258 ft | 350 kts | 201° |
| 2026-05-07 13:17 | 36.58080 | 10.99344 | 22987 ft | 343 kts | 200° |
| 2026-05-07 13:17 | 36.55749 | 10.98642 | 22404 ft | 346 kts | 201° |
| 2026-05-07 13:18 | 36.53456 | 10.97948 | 22088 ft | 340 kts | 200° |
| 2026-05-07 13:18 | 36.51163 | 10.97266 | 21679 ft | 338 kts | 200° |
| 2026-05-07 13:18 | 36.48878 | 10.96586 | 21283 ft | 335 kts | 200° |
| 2026-05-07 13:18 | 36.46614 | 10.95910 | 20738 ft | 337 kts | 200° |
| 2026-05-07 13:19 | 36.44356 | 10.95235 | 20389 ft | 332 kts | 199° |
| 2026-05-07 13:19 | 36.42105 | 10.94565 | 19981 ft | 329 kts | 199° |
| 2026-05-07 13:19 | 36.39896 | 10.93907 | 19566 ft | 327 kts | 199° |
| 2026-05-07 13:19 | 36.37699 | 10.93249 | 19205 ft | 323 kts | 199° |
| 2026-05-07 13:20 | 36.35556 | 10.92477 | 18883 ft | 314 kts | 205° |
| 2026-05-07 13:20 | 36.33601 | 10.91309 | 18405 ft | 309 kts | 217° |
| 2026-05-07 13:20 | 36.31950 | 10.89679 | 18002 ft | 303 kts | 227° |
| 2026-05-07 13:20 | 36.30577 | 10.87719 | 17680 ft | 297 kts | 234° |
| 2026-05-07 13:21 | 36.29399 | 10.85621 | 17158 ft | 298 kts | 238° |
| 2026-05-07 13:21 | 36.28302 | 10.83493 | 16802 ft | 294 kts | 239° |
| 2026-05-07 13:21 | 36.27215 | 10.81357 | 16385 ft | 292 kts | 238° |
| 2026-05-07 13:21 | 36.26133 | 10.79251 | 16071 ft | 287 kts | 238° |
| 2026-05-07 13:22 | 36.25064 | 10.77201 | 15678 ft | 285 kts | 238° |
| 2026-05-07 13:22 | 36.23978 | 10.75128 | 15191 ft | 286 kts | 238° |
| 2026-05-07 13:22 | 36.22903 | 10.73077 | 14798 ft | 284 kts | 238° |
| 2026-05-07 13:22 | 36.21829 | 10.71030 | 14338 ft | 285 kts | 238° |
| 2026-05-07 13:23 | 36.20755 | 10.68980 | 13915 ft | 283 kts | 239° |
| 2026-05-07 13:23 | 36.19696 | 10.66954 | 13457 ft | 279 kts | 238° |
| 2026-05-07 13:23 | 36.18646 | 10.64946 | 12994 ft | 272 kts | 239° |
| 2026-05-07 13:23 | 36.17624 | 10.62998 | 12493 ft | 268 kts | 239° |
| 2026-05-07 13:24 | 36.16631 | 10.61103 | 11966 ft | 265 kts | 239° |
| 2026-05-07 13:24 | 36.15609 | 10.59154 | 11212 ft | 270 kts | 239° |
| 2026-05-07 13:24 | 36.14606 | 10.57231 | 10634 ft | 269 kts | 239° |
| 2026-05-07 13:24 | 36.13594 | 10.55307 | 10172 ft | 263 kts | 239° |
| 2026-05-07 13:25 | 36.12616 | 10.53454 | 9710 ft | 258 kts | 240° |
| 2026-05-07 13:25 | 36.11633 | 10.51590 | 9184 ft | 256 kts | 239° |
| 2026-05-07 13:25 | 36.10679 | 10.49778 | 8712 ft | 255 kts | 240° |
| 2026-05-07 13:25 | 36.09705 | 10.47918 | 8323 ft | 255 kts | 240° |
| 2026-05-07 13:26 | 36.08751 | 10.46091 | 7987 ft | 253 kts | 241° |
| 2026-05-07 13:26 | 36.07790 | 10.44267 | 7649 ft | 252 kts | 240° |
| 2026-05-07 13:26 | 36.06902 | 10.42398 | 7321 ft | 249 kts | 247° |
| 2026-05-07 13:26 | 36.06193 | 10.40477 | 6997 ft | 247 kts | 250° |
| 2026-05-07 13:27 | 36.05532 | 10.38498 | 6715 ft | 244 kts | 251° |
| 2026-05-07 13:27 | 36.04881 | 10.36606 | 6458 ft | 242 kts | 250° |
| 2026-05-07 13:27 | 36.04202 | 10.34708 | 6144 ft | 241 kts | 249° |
| 2026-05-07 13:27 | 36.03515 | 10.32818 | 5826 ft | 241 kts | 249° |
| 2026-05-07 13:28 | 36.02819 | 10.30911 | 5501 ft | 242 kts | 250° |
| 2026-05-07 13:28 | 36.02133 | 10.29022 | 5183 ft | 242 kts | 249° |
| 2026-05-07 13:28 | 36.01448 | 10.27131 | 4862 ft | 242 kts | 249° |
| 2026-05-07 13:28 | 36.00751 | 10.25209 | 4573 ft | 241 kts | 250° |
| 2026-05-07 13:29 | 36.00069 | 10.23342 | 4419 ft | 235 kts | 249° |
| 2026-05-07 13:29 | 35.99404 | 10.21524 | 4312 ft | 226 kts | 250° |
| 2026-05-07 13:29 | 35.98769 | 10.19784 | 4216 ft | 217 kts | 250° |
| 2026-05-07 13:29 | 35.98103 | 10.18106 | 4031 ft | 226 kts | 246° |
| 2026-05-07 13:30 | 35.97626 | 10.16248 | 3779 ft | 223 kts | 274° |
| 2026-05-07 13:30 | 35.97981 | 10.14469 | 3545 ft | 214 kts | 306° |
| 2026-05-07 13:30 | 35.99079 | 10.13275 | 3313 ft | 208 kts | 336° |
| 2026-05-07 13:30 | 36.00435 | 10.12660 | 3078 ft | 208 kts | 346° |
| 2026-05-07 13:31 | 36.01862 | 10.12442 | 2869 ft | 206 kts | 1° |
| 2026-05-07 13:31 | 36.03294 | 10.12527 | 2874 ft | 206 kts | 4° |
| 2026-05-07 13:31 | 36.04727 | 10.12644 | 2864 ft | 205 kts | 3° |
| 2026-05-07 13:31 | 36.06185 | 10.12970 | 2708 ft | 224 kts | 24° |
| 2026-05-07 13:32 | 36.07324 | 10.14279 | 2465 ft | 227 kts | 60° |
| 2026-05-07 13:32 | 36.07680 | 10.16186 | 2219 ft | 229 kts | 87° |
| 2026-05-07 13:32 | 36.07608 | 10.18104 | 2204 ft | 217 kts | 86° |
| 2026-05-07 13:32 | 36.07636 | 10.19900 | 2203 ft | 201 kts | 82° |
| 2026-05-07 13:33 | 36.07657 | 10.21555 | 2207 ft | 186 kts | 86° |
| 2026-05-07 13:33 | 36.07642 | 10.23099 | 2197 ft | 173 kts | 84° |
| 2026-05-07 13:33 | 36.07650 | 10.24576 | 2213 ft | 174 kts | 84° |
| 2026-05-07 13:33 | 36.07641 | 10.26108 | 2215 ft | 176 kts | 85° |
| 2026-05-07 13:34 | 36.07635 | 10.27611 | 2189 ft | 177 kts | 84° |
| 2026-05-07 13:34 | 36.07622 | 10.30569 | 1807 ft | 160 kts | 84° |
| 2026-05-07 13:34 | 36.07622 | 10.31912 | 1651 ft | 153 kts | 84° |
| 2026-05-07 13:35 | 36.07617 | 10.33255 | 1405 ft | 156 kts | 85° |
| 2026-05-07 13:35 | 36.07613 | 10.34587 | 1191 ft | 151 kts | 84° |
| 2026-05-07 13:35 | 36.07607 | 10.35891 | 995 ft | 152 kts | 85° |
| 2026-05-07 13:35 | 36.07600 | 10.37218 | 792 ft | 154 kts | 85° |
| 2026-05-07 13:36 | 36.07596 | 10.38543 | 587 ft | 152 kts | 85° |
| 2026-05-07 13:36 | 36.07588 | 10.39849 | 391 ft | 151 kts | 85° |
| 2026-05-07 13:36 | 36.07579 | 10.41135 | 191 ft | 149 kts | 86° |
| 2026-05-07 13:36 | 36.07579 | 10.42379 | 29 ft | 142 kts | 86° |
| 2026-05-07 13:37 | 36.07581 | 10.43398 | 16 ft | 85 kts | 92° |
| 2026-05-07 13:37 | 36.07576 | 10.43877 | 14 ft | 33 kts | 90° |
| 2026-05-07 13:37 | 36.07584 | 10.44142 | 14 ft | 27 kts | 79° |
| 2026-05-07 13:37 | 36.07639 | 10.44336 | 14 ft | 21 kts | 64° |
| 2026-05-07 13:38 | 36.07711 | 10.44410 | 15 ft | 12 kts | 338° |
| 2026-05-07 13:38 | 36.07743 | 10.44313 | 14 ft | 14 kts | 271° |
| 2026-05-07 13:38 | 36.07745 | 10.44182 | 14 ft | 16 kts | 272° |
| 2026-05-07 13:38 | 36.07747 | 10.44034 | 14 ft | 18 kts | 270° |
| 2026-05-07 13:39 | 36.07782 | 10.43926 | 15 ft | 12 kts | 357° |
| 2026-05-07 13:39 | 36.07874 | 10.43932 | 15 ft | 14 kts | 1° |
| 2026-05-07 13:39 | 36.07974 | 10.43933 | 15 ft | 7 kts | 1° |
| 2026-05-07 13:39 | 36.08037 | 10.43947 | 15 ft | 11 kts | 33° |
| 2026-05-07 13:40 | 36.08098 | 10.44020 | 14 ft | 11 kts | 44° |
| 2026-05-07 13:40 | 36.08149 | 10.44045 | 14 ft | 7 kts | 333° |
| 2026-05-07 13:40 | 36.08178 | 10.44031 | 14 ft | 3 kts | 339° |
| 2026-05-07 13:40 | 36.08194 | 10.44023 | 14 ft | 1 kts | 340° |
| 2026-05-07 13:41 | 36.08201 | 10.44021 | 14 ft | 1 kts | 340° |
| 2026-05-07 13:41 | 36.08201 | 10.44020 | 14 ft | 0 kts | 340° |